Time;durP1;ratioP1;P1;durP2;ratioP2;P2;SDS_P1;SDS_P2;PMS_P1;PMS_P2;Temp;Humidity;BMP_temperature;BMP_pressure;BME280_temperature;BME280_humidity;BME280_pressure;Samples;Min_cycle;Max_cycle;Signal;HPM_P1;HPM_P2
2022/02/03 00:04:23;;;;;;;0.40;0.20;;;7.90;99.90;;;;;;5011763;28;20385;-74
2022/02/03 00:07:00;;;;;;;0.57;0.57;;;7.80;99.90;;;;;;5009951;28;20409;-75
2022/02/03 00:25:27;;;;;;;0.40;0.20;;;7.10;99.90;;;;;;5010559;28;20397;-74
2022/02/03 00:30:57;;;;;;;0.40;0.30;;;6.90;99.90;;;;;;5011371;28;20461;-74
2022/02/03 00:38:39;;;;;;;0.40;0.30;;;6.70;99.90;;;;;;5010076;28;20512;-74
2022/02/03 00:49:48;;;;;;;0.40;0.40;;;6.70;99.90;;;;;;5030599;28;20382;-74
2022/02/03 00:52:15;;;;;;;0.40;0.20;;;6.80;99.90;;;;;;5030217;28;20386;-74
2022/02/03 00:54:41;;;;;;;0.40;0.20;;;6.70;99.90;;;;;;5030598;28;20885;-74
2022/02/03 00:57:14;;;;;;;0.40;0.20;;;6.70;99.90;;;;;;5030031;28;20489;-74
2022/02/03 00:59:50;;;;;;;0.40;0.20;;;6.70;99.90;;;;;;5030657;28;20425;-74
2022/02/03 01:02:17;;;;;;;0.40;0.20;;;6.60;99.90;;;;;;5029445;28;20867;-74
2022/02/03 01:04:43;;;;;;;0.40;0.40;;;6.60;99.90;;;;;;5030548;28;20375;-74
2022/02/03 01:07:11;;;;;;;0.40;0.22;;;6.60;99.90;;;;;;5030144;28;20391;-74
2022/02/03 01:09:44;;;;;;;0.40;0.20;;;6.70;99.90;;;;;;5030192;28;20383;-74
2022/02/03 01:15:13;;;;;;;0.40;0.20;;;6.70;99.90;;;;;;5029636;28;20704;-74
2022/02/03 01:17:42;;;;;;;0.40;0.20;;;6.80;99.90;;;;;;5028452;28;20457;-74
2022/02/03 01:34:35;;;;;;;0.40;0.20;;;6.90;99.90;;;;;;5030118;28;20382;-74
2022/02/03 01:45:23;;;;;;;0.40;0.20;;;6.90;99.90;;;;;;5029888;28;20390;-73
2022/02/03 01:48:19;;;;;;;0.40;0.20;;;6.80;99.90;;;;;;5029249;28;20429;-73
2022/02/03 01:53:33;;;;;;;0.40;0.20;;;6.70;99.90;;;;;;5029855;28;20425;-73
2022/02/03 01:56:08;;;;;;;0.40;0.30;;;6.70;99.90;;;;;;5011334;28;20887;-73
2022/02/03 01:58:45;;;;;;;0.40;0.20;;;6.80;99.90;;;;;;5028220;28;20434;-73
2022/02/03 02:01:29;;;;;;;0.40;0.20;;;6.70;99.90;;;;;;5029825;28;20468;-73
2022/02/03 02:04:32;;;;;;;0.40;0.20;;;6.70;99.90;;;;;;5028652;28;20492;-73
2022/02/03 02:07:03;;;;;;;0.40;0.20;;;6.60;99.90;;;;;;5028689;28;20398;-73
2022/02/03 02:39:09;;;;;;;0.40;0.20;;;6.10;99.90;;;;;;5033203;28;20430;-74
2022/02/03 02:44:47;;;;;;;0.40;0.20;;;5.90;99.90;;;;;;5033195;28;20435;-74
2022/02/03 02:48:09;;;;;;;0.40;0.25;;;5.80;99.90;;;;;;5032284;28;20399;-74
2022/02/03 02:51:06;;;;;;;0.40;0.20;;;5.70;99.90;;;;;;4951985;29;20449;-74
2022/02/03 02:54:24;;;;;;;0.40;0.20;;;5.70;99.90;;;;;;4951229;29;20886;-74
2022/02/03 03:33:43;;;;;;;0.40;0.40;;;5.50;99.90;;;;;;5031580;28;20387;-74
2022/02/03 03:35:43;;;;;;;0.40;0.20;;;5.50;99.90;;;;;;5024415;28;20448;-73
2022/02/03 03:38:11;;;;;;;0.40;0.20;;;5.50;99.90;;;;;;5031836;28;20415;-73
2022/02/03 03:40:41;;;;;;;0.40;0.20;;;5.50;99.90;;;;;;5031849;28;20553;-73
2022/02/03 03:43:12;;;;;;;0.40;0.20;;;5.40;99.90;;;;;;5031799;28;20379;-73
2022/02/03 03:45:46;;;;;;;0.40;0.20;;;5.40;99.90;;;;;;5031718;28;20739;-73
2022/02/03 03:48:17;;;;;;;0.40;0.20;;;5.30;99.90;;;;;;5031765;28;20577;-73
2022/02/03 03:50:48;;;;;;;0.40;0.20;;;5.20;99.90;;;;;;5031229;28;20390;-73
2022/02/03 03:53:24;;;;;;;0.40;0.30;;;5.20;99.90;;;;;;5031896;28;20389;-73
2022/02/03 03:56:17;;;;;;;0.40;0.20;;;5.20;99.90;;;;;;5030862;28;20383;-74
2022/02/03 03:59:09;;;;;;;0.40;0.20;;;5.10;99.90;;;;;;5031415;28;20414;-73
2022/02/03 04:31:05;;;;;;;0.40;0.40;;;4.80;99.90;;;;;;5031358;28;20421;-73
2022/02/03 04:37:07;;;;;;;0.40;0.20;;;4.80;99.90;;;;;;5031393;28;20422;-73
2022/02/03 04:55:10;;;;;;;0.40;0.20;;;4.60;99.90;;;;;;5030091;28;20379;-73
2022/02/03 04:58:57;;;;;;;0.40;0.20;;;4.50;99.90;;;;;;5029910;28;20506;-73
2022/02/03 05:04:34;;;;;;;0.40;0.30;;;4.50;99.90;;;;;;5030935;28;20854;-73
2022/02/03 05:07:42;;;;;;;0.40;0.20;;;4.50;99.90;;;;;;5030792;28;20836;-73
2022/02/03 05:13:36;;;;;;;0.40;0.20;;;4.40;99.90;;;;;;5029983;28;21302;-73
2022/02/03 05:45:37;;;;;;;0.40;0.20;;;4.30;99.90;;;;;;5030308;28;20375;-73
2022/02/03 06:12:49;;;;;;;0.40;0.40;;;4.60;99.90;;;;;;5033449;28;20402;-74
2022/02/03 06:15:20;;;;;;;0.40;0.20;;;4.50;99.90;;;;;;5033778;28;20395;-74
2022/02/03 06:29:03;;;;;;;0.40;0.20;;;4.20;99.90;;;;;;5013554;28;20492;-73
2022/02/03 06:31:29;;;;;;;0.40;0.20;;;4.20;99.90;;;;;;5013186;28;20381;-73
2022/02/03 06:33:56;;;;;;;0.40;0.20;;;4.30;99.90;;;;;;5013988;28;20389;-73
2022/02/03 06:36:22;;;;;;;0.40;0.20;;;4.10;99.90;;;;;;5013804;28;20390;-73
2022/02/03 06:38:47;;;;;;;0.40;0.40;;;4.00;99.90;;;;;;5013229;28;20993;-74
2022/02/03 06:41:13;;;;;;;0.90;0.90;;;3.90;99.90;;;;;;5014006;28;20381;-73
2022/02/03 06:43:39;;;;;;;0.40;0.30;;;3.90;99.90;;;;;;5013387;28;20417;-74
2022/02/03 06:46:09;;;;;;;0.40;0.20;;;3.90;99.90;;;;;;5026697;28;20383;-73
2022/02/03 06:48:36;;;;;;;0.40;0.20;;;3.80;99.90;;;;;;5033072;28;20453;-73
2022/02/03 06:51:10;;;;;;;0.40;0.20;;;3.90;99.90;;;;;;5033808;28;20478;-73
2022/02/03 06:53:39;;;;;;;0.40;0.20;;;3.90;99.90;;;;;;5033517;28;20375;-73
2022/02/03 06:56:23;;;;;;;0.40;0.20;;;3.90;99.90;;;;;;5033162;28;20391;-73
2022/02/03 06:58:54;;;;;;;0.40;0.20;;;3.80;99.90;;;;;;5032556;28;20415;-73
2022/02/03 07:01:28;;;;;;;0.40;0.30;;;3.80;99.90;;;;;;5033332;28;20805;-73
2022/02/03 07:03:59;;;;;;;0.40;0.20;;;3.90;99.90;;;;;;5032603;28;20440;-73
2022/02/03 07:06:25;;;;;;;0.40;0.20;;;3.90;99.90;;;;;;5033332;28;20379;-73
2022/02/03 07:08:52;;;;;;;0.40;0.20;;;3.90;99.90;;;;;;5032453;28;20448;-73
2022/02/03 07:11:20;;;;;;;0.40;0.20;;;3.80;99.90;;;;;;5033246;28;20863;-73
2022/02/03 07:13:47;;;;;;;0.90;0.60;;;3.70;99.90;;;;;;5032756;28;20884;-74
2022/02/03 07:16:13;;;;;;;0.40;0.30;;;3.80;99.90;;;;;;5031905;28;20376;-74
2022/02/03 07:18:39;;;;;;;1.10;0.70;;;3.90;99.90;;;;;;5033188;28;20434;-73
2022/02/03 07:21:05;;;;;;;0.40;0.20;;;3.80;99.90;;;;;;5032149;28;20449;-74
2022/02/03 07:23:31;;;;;;;0.90;0.68;;;3.80;99.90;;;;;;5033014;28;20386;-73
2022/02/03 07:25:57;;;;;;;0.40;0.20;;;3.90;99.90;;;;;;5032889;28;20860;-73
2022/02/03 07:28:22;;;;;;;0.40;0.20;;;3.80;99.90;;;;;;5032487;28;20474;-73
2022/02/03 07:30:49;;;;;;;0.40;0.20;;;3.90;99.90;;;;;;5032619;28;20467;-74
2022/02/03 07:33:15;;;;;;;0.40;0.20;;;3.90;99.90;;;;;;5031754;28;20394;-73
2022/02/03 07:35:41;;;;;;;0.40;0.20;;;3.90;99.90;;;;;;5033055;28;20462;-74
2022/02/03 07:38:08;;;;;;;0.60;0.60;;;3.90;99.90;;;;;;5031851;28;20522;-74
2022/02/03 07:40:35;;;;;;;0.40;0.30;;;4.10;99.90;;;;;;5031660;28;20394;-73
2022/02/03 07:43:04;;;;;;;0.40;0.30;;;4.10;99.90;;;;;;5032684;28;20387;-73
2022/02/03 07:45:31;;;;;;;0.40;0.20;;;4.20;99.90;;;;;;5031747;28;20398;-73
2022/02/03 07:47:57;;;;;;;0.90;0.90;;;4.20;99.90;;;;;;5032295;28;20493;-74
2022/02/03 07:50:23;;;;;;;0.50;0.50;;;4.30;99.90;;;;;;5031751;28;20933;-73
2022/02/03 07:52:49;;;;;;;0.40;0.20;;;4.30;99.90;;;;;;5032027;28;20375;-74
2022/02/03 07:55:16;;;;;;;0.40;0.20;;;4.30;99.90;;;;;;5032006;28;20399;-74
2022/02/03 07:57:51;;;;;;;0.40;0.20;;;4.30;99.90;;;;;;5014251;28;20415;-73
2022/02/03 08:00:18;;;;;;;0.40;0.40;;;4.40;99.90;;;;;;5031823;28;20447;-74
2022/02/03 08:02:45;;;;;;;0.40;0.20;;;4.40;99.90;;;;;;5031858;28;20386;-73
2022/02/03 08:05:13;;;;;;;0.40;0.30;;;4.50;99.90;;;;;;5032244;28;20376;-74
2022/02/03 08:07:49;;;;;;;0.40;0.20;;;4.50;99.90;;;;;;5031410;28;20380;-74
2022/02/03 08:10:28;;;;;;;0.40;0.20;;;4.40;99.90;;;;;;5031755;28;20943;-73
2022/02/03 08:12:55;;;;;;;0.40;0.20;;;4.50;99.90;;;;;;5014341;28;20728;-73
2022/02/03 08:15:24;;;;;;;0.40;0.22;;;4.60;99.90;;;;;;5014237;28;20379;-74
2022/02/03 08:17:51;;;;;;;1.00;0.60;;;4.60;99.90;;;;;;5030719;28;20722;-74
2022/02/03 08:20:19;;;;;;;0.40;0.20;;;4.70;99.90;;;;;;5031457;28;20454;-74
2022/02/03 08:22:55;;;;;;;0.40;0.20;;;4.80;99.90;;;;;;5013308;28;20390;-73
2022/02/03 08:25:26;;;;;;;0.40;0.20;;;4.90;99.90;;;;;;5031742;28;20913;-74
2022/02/03 08:28:54;;;;;;;0.40;0.20;;;4.90;99.90;;;;;;5030400;28;20403;-74
2022/02/03 08:30:58;;;;;;;0.90;0.65;;;5.00;99.90;;;;;;5017128;28;20395;-73
2022/02/03 08:33:24;;;;;;;0.40;0.30;;;5.00;99.90;;;;;;5031458;28;20483;-73
2022/02/03 08:35:51;;;;;;;0.40;0.40;;;5.10;99.90;;;;;;5030914;28;20455;-74
2022/02/03 08:38:32;;;;;;;0.40;0.20;;;5.10;99.90;;;;;;5031555;28;20434;-74
2022/02/03 08:41:01;;;;;;;0.40;0.20;;;5.20;99.90;;;;;;5030668;28;20387;-73
2022/02/03 08:43:30;;;;;;;0.40;0.20;;;5.20;99.90;;;;;;5031229;28;20807;-73
2022/02/03 08:45:57;;;;;;;0.40;0.20;;;5.30;99.90;;;;;;5030414;28;20395;-73
2022/02/03 08:48:23;;;;;;;0.60;0.60;;;5.50;99.90;;;;;;5031378;28;20395;-73
2022/02/03 08:50:49;;;;;;;0.40;0.20;;;5.70;99.90;;;;;;5030724;28;20437;-73
2022/02/03 08:53:21;;;;;;;0.40;0.20;;;5.80;99.90;;;;;;5013103;28;20954;-73
2022/02/03 08:55:58;;;;;;;0.40;0.30;;;5.80;99.90;;;;;;5031363;28;20871;-73
2022/02/03 09:36:47;;;;;;;0.40;0.20;;;7.00;99.90;;;;;;5029759;28;20414;-73
2022/02/03 09:55:14;;;;;;;0.40;0.20;;;7.80;99.90;;;;;;5017281;28;20527;-74
2022/02/03 09:57:55;;;;;;;0.40;0.20;;;8.00;99.90;;;;;;5016510;28;20424;-73
2022/02/03 10:00:35;;;;;;;0.40;0.30;;;8.10;99.90;;;;;;5017360;28;20384;-73
2022/02/03 10:03:07;;;;;;;0.40;0.20;;;8.20;99.90;;;;;;5016062;28;20845;-73
2022/02/03 10:07:59;;;;;;;0.40;0.20;;;8.20;99.90;;;;;;5016855;28;20451;-73
2022/02/03 10:10:28;;;;;;;0.40;0.20;;;8.20;99.90;;;;;;5017596;28;20714;-73
2022/02/03 10:12:54;;;;;;;0.40;0.20;;;8.30;99.90;;;;;;5016449;28;20462;-73
2022/02/03 10:15:21;;;;;;;0.40;0.30;;;8.40;99.90;;;;;;5016873;28;20515;-73
2022/02/03 10:17:49;;;;;;;0.40;0.20;;;8.40;99.90;;;;;;5015401;28;20424;-73
2022/02/03 10:20:19;;;;;;;0.40;0.20;;;8.40;99.90;;;;;;5017149;28;20535;-74
2022/02/03 10:22:51;;;;;;;0.40;0.20;;;8.40;99.90;;;;;;5015108;28;20393;-73
2022/02/03 10:25:37;;;;;;;0.40;0.20;;;8.40;99.90;;;;;;5016928;28;20388;-73
2022/02/03 10:28:09;;;;;;;0.40;0.20;;;8.60;99.90;;;;;;5012124;28;20395;-74
2022/02/03 10:31:01;;;;;;;0.40;0.20;;;8.80;99.90;;;;;;5017052;28;20882;-74
2022/02/03 10:33:37;;;;;;;0.40;0.30;;;8.80;99.90;;;;;;5016531;28;20412;-74
2022/02/03 10:36:22;;;;;;;0.40;0.40;;;8.80;99.90;;;;;;5016308;28;20484;-74
2022/02/03 10:42:13;;;;;;;0.40;0.20;;;8.80;99.90;;;;;;4974694;28;20439;-73
2022/02/03 11:06:51;;;;;;;0.40;0.30;;;9.10;99.90;;;;;;4991350;28;20413;-74
2022/02/03 11:09:30;;;;;;;0.40;0.30;;;9.50;99.90;;;;;;5015861;28;20422;-74
2022/02/03 11:11:58;;;;;;;0.40;0.20;;;9.50;99.90;;;;;;5033447;28;20871;-74
2022/02/03 11:14:24;;;;;;;0.40;0.20;;;9.50;99.90;;;;;;5032725;28;20396;-74
2022/02/03 11:16:52;;;;;;;0.40;0.20;;;9.70;99.90;;;;;;5031747;28;20476;-73
2022/02/03 11:19:21;;;;;;;0.40;0.20;;;9.70;99.90;;;;;;5013095;28;20609;-73
2022/02/03 11:22:10;;;;;;;0.40;0.20;;;9.50;99.90;;;;;;5033392;28;20716;-74
2022/02/03 11:24:42;;;;;;;0.40;0.30;;;9.70;99.90;;;;;;5032275;28;20397;-74
2022/02/03 11:32:56;;;;;;;0.40;0.20;;;9.90;99.90;;;;;;5032965;28;20390;-74
2022/02/03 11:38:05;;;;;;;0.40;0.20;;;9.90;99.90;;;;;;5032756;28;20740;-73
2022/02/03 11:40:41;;;;;;;0.40;0.20;;;10.10;99.90;;;;;;5013963;28;20417;-73
2022/02/03 11:57:36;;;;;;;0.40;0.20;;;10.20;99.90;;;;;;5032126;28;20422;-72
2022/02/03 12:16:51;;;;;;;0.50;0.50;;;10.40;99.90;;;;;;5031984;28;20390;-74
2022/02/03 12:22:29;;;;;;;0.40;0.20;;;10.60;99.90;;;;;;5031231;28;20414;-75
2022/02/03 12:25:33;;;;;;;0.60;0.60;;;10.60;99.90;;;;;;5031094;28;20860;-75
2022/02/03 12:28:20;;;;;;;0.40;0.30;;;10.80;99.90;;;;;;5030675;28;20391;-75
2022/02/03 12:31:10;;;;;;;1.90;0.70;;;10.90;99.90;;;;;;5031585;28;20399;-75
2022/02/03 12:39:05;;;;;;;0.40;0.40;;;10.50;99.90;;;;;;5026251;28;20424;-75
2022/02/03 12:41:44;;;;;;;2.00;0.60;;;10.60;99.90;;;;;;5022684;28;20392;-74
2022/02/03 12:44:18;;;;;;;0.40;0.20;;;10.80;99.90;;;;;;5029820;28;20740;-76
2022/02/03 12:46:47;;;;;;;2.80;0.90;;;11.10;99.90;;;;;;5029616;28;20387;-76
2022/02/03 12:49:13;;;;;;;0.40;0.20;;;11.40;99.90;;;;;;5030374;28;20747;-74
2022/02/03 12:51:41;;;;;;;0.60;0.60;;;11.60;99.90;;;;;;5031234;28;20383;-75
2022/02/03 12:54:16;;;;;;;0.40;0.20;;;11.50;99.90;;;;;;5019546;28;20399;-75
2022/02/03 12:56:42;;;;;;;0.40;0.30;;;11.30;99.90;;;;;;5022486;28;20887;-75
2022/02/03 12:59:12;;;;;;;0.40;0.30;;;11.20;99.90;;;;;;5021630;28;20422;-76
2022/02/03 13:01:45;;;;;;;0.40;0.20;;;11.00;99.90;;;;;;5019666;28;20439;-75
2022/02/03 13:04:16;;;;;;;0.40;0.20;;;11.10;99.90;;;;;;5030606;28;20387;-74
2022/02/03 13:07:03;;;;;;;0.50;0.50;;;11.00;99.90;;;;;;5031015;28;20383;-75
2022/02/03 13:09:53;;;;;;;0.40;0.20;;;11.10;99.90;;;;;;5002067;28;20393;-75
2022/02/03 13:12:32;;;;;;;0.40;0.20;;;11.40;99.90;;;;;;5010411;28;20385;-75
2022/02/03 13:15:03;;;;;;;1.73;1.23;;;11.50;99.90;;;;;;5010593;28;20427;-75
2022/02/03 13:17:37;;;;;;;0.40;0.20;;;11.50;99.90;;;;;;4992174;28;20475;-76
2022/02/03 13:20:39;;;;;;;0.40;0.30;;;11.50;99.90;;;;;;4993607;28;20440;-75
2022/02/03 13:23:11;;;;;;;0.40;0.30;;;11.70;99.90;;;;;;4998921;28;20391;-75
2022/02/03 13:25:56;;;;;;;0.40;0.30;;;11.60;99.90;;;;;;5030083;28;20387;-74
2022/02/03 13:28:39;;;;;;;0.40;0.20;;;11.30;99.90;;;;;;5030172;28;20893;-75
2022/02/03 13:31:18;;;;;;;1.20;1.10;;;11.30;99.90;;;;;;5030689;28;20379;-75
2022/02/03 13:33:59;;;;;;;0.40;0.30;;;11.10;99.90;;;;;;5029377;28;20559;-76
2022/02/03 13:36:31;;;;;;;0.40;0.30;;;10.90;99.90;;;;;;5030429;28;20399;-75
2022/02/03 13:39:37;;;;;;;0.40;0.30;;;10.80;99.90;;;;;;5012962;28;20438;-75
2022/02/03 13:42:07;;;;;;;0.40;0.20;;;10.90;99.90;;;;;;5025418;28;20923;-76
2022/02/03 13:44:34;;;;;;;0.40;0.20;;;10.80;99.90;;;;;;5029865;28;20423;-75
2022/02/03 13:46:59;;;;;;;0.40;0.20;;;10.90;99.90;;;;;;5027069;28;20391;-75
2022/02/03 13:49:29;;;;;;;4.50;0.90;;;10.70;99.90;;;;;;5013084;28;20521;-75
2022/02/03 13:52:09;;;;;;;0.40;0.20;;;10.90;99.90;;;;;;5029846;28;20717;-76
2022/02/03 14:22:08;;;;;;;0.40;0.20;;;10.80;99.90;;;;;;5028524;28;20379;-74
2022/02/03 14:27:22;;;;;;;0.40;0.20;;;10.60;99.90;;;;;;5029831;28;20402;-74
2022/02/03 14:29:52;;;;;;;0.40;0.20;;;10.50;99.90;;;;;;5030362;28;20744;-74
2022/02/03 14:32:30;;;;;;;0.40;0.20;;;10.50;99.90;;;;;;5007101;28;20376;-74
2022/02/03 14:34:57;;;;;;;0.40;0.20;;;10.50;99.90;;;;;;5031641;28;20852;-74
2022/02/03 14:40:04;;;;;;;0.40;0.32;;;10.30;99.90;;;;;;5017379;28;20379;-73
2022/02/03 14:42:34;;;;;;;0.40;0.25;;;10.20;99.90;;;;;;5033054;28;20418;-73
2022/02/03 14:45:00;;;;;;;0.40;0.20;;;10.30;99.90;;;;;;5034894;28;20387;-74
2022/02/03 14:47:29;;;;;;;0.40;0.30;;;10.20;99.90;;;;;;5039507;28;20879;-73
2022/02/03 14:49:55;;;;;;;0.40;0.30;;;10.20;99.90;;;;;;5017546;28;20409;-73
2022/02/03 14:52:31;;;;;;;0.40;0.20;;;10.30;99.90;;;;;;5035578;28;20430;-75
2022/02/03 15:00:27;;;;;;;0.40;0.20;;;10.20;99.90;;;;;;5033623;28;20423;-74
2022/02/03 15:02:53;;;;;;;0.40;0.20;;;10.20;99.90;;;;;;5032797;28;20721;-74
2022/02/03 15:05:26;;;;;;;0.40;0.30;;;10.20;99.90;;;;;;5043626;28;20383;-74
2022/02/03 15:07:59;;;;;;;0.40;0.40;;;10.10;99.90;;;;;;5040453;28;20840;-73
2022/02/03 15:15:26;;;;;;;0.40;0.20;;;10.10;99.90;;;;;;5020353;28;20393;-76
2022/02/03 15:17:52;;;;;;;0.40;0.30;;;10.00;99.90;;;;;;5039064;28;20747;-73
2022/02/03 15:20:18;;;;;;;0.40;0.20;;;10.00;99.90;;;;;;5042130;28;20739;-74
2022/02/03 15:22:44;;;;;;;0.57;0.57;;;9.90;99.90;;;;;;5040784;28;20501;-74
2022/02/03 15:25:11;;;;;;;0.40;0.20;;;9.90;99.90;;;;;;5044137;28;20472;-74
2022/02/03 15:27:38;;;;;;;0.40;0.20;;;9.90;99.90;;;;;;5029928;28;20450;-76
2022/02/03 15:30:05;;;;;;;0.40;0.28;;;9.80;99.90;;;;;;5035262;28;20462;-74
2022/02/03 15:32:39;;;;;;;0.40;0.20;;;9.80;99.90;;;;;;5038938;28;20398;-73
2022/02/03 15:35:14;;;;;;;0.50;0.50;;;9.70;99.90;;;;;;5039548;28;20512;-74
2022/02/03 15:37:43;;;;;;;0.60;0.60;;;9.70;99.90;;;;;;5021363;28;20415;-74
2022/02/03 15:40:16;;;;;;;0.40;0.20;;;9.80;99.90;;;;;;5019710;28;20406;-74
2022/02/03 15:42:54;;;;;;;0.40;0.20;;;9.60;99.90;;;;;;5035645;28;20402;-74
2022/02/03 15:45:20;;;;;;;0.40;0.30;;;9.50;99.90;;;;;;5033452;28;20887;-74
2022/02/03 15:47:51;;;;;;;0.60;0.60;;;9.50;99.90;;;;;;5036042;28;20402;-75
2022/02/03 16:17:03;;;;;;;0.40;0.20;;;8.90;99.90;;;;;;5033698;28;20868;-76
2022/02/03 16:19:39;;;;;;;0.40;0.20;;;8.80;99.90;;;;;;5041780;28;20419;-76
2022/02/03 16:22:20;;;;;;;0.40;0.20;;;8.80;99.90;;;;;;5028553;28;20460;-74
2022/02/03 16:52:51;;;;;;;0.40;0.20;;;8.20;99.90;;;;;;5038840;28;20390;-74
2022/02/03 16:55:21;;;;;;;0.50;0.40;;;8.20;99.90;;;;;;5040307;28;20900;-74
2022/02/03 16:57:49;;;;;;;0.40;0.20;;;8.20;99.90;;;;;;5035253;28;20863;-75
2022/02/03 17:00:17;;;;;;;0.40;0.20;;;8.20;99.90;;;;;;5031516;28;20402;-74
2022/02/03 17:02:43;;;;;;;0.43;0.35;;;8.10;99.90;;;;;;5029183;28;20393;-74
2022/02/03 17:05:09;;;;;;;0.40;0.20;;;8.00;99.90;;;;;;5016537;28;20383;-75
2022/02/03 17:07:38;;;;;;;0.40;0.20;;;8.00;99.90;;;;;;5040237;28;20466;-75
2022/02/03 17:10:05;;;;;;;0.40;0.20;;;8.00;99.90;;;;;;5040352;28;20909;-73
2022/02/03 17:12:32;;;;;;;0.40;0.20;;;7.90;99.90;;;;;;5011488;28;20399;-73
2022/02/03 17:14:58;;;;;;;0.50;0.50;;;7.80;99.90;;;;;;5036404;28;20383;-74
2022/02/03 17:17:25;;;;;;;0.40;0.20;;;7.80;99.90;;;;;;5040160;28;20422;-74
2022/02/03 17:19:51;;;;;;;1.70;1.60;;;7.90;99.90;;;;;;5036209;28;20419;-74
2022/02/03 17:22:27;;;;;;;1.30;1.20;;;7.80;99.90;;;;;;5037198;28;20397;-76
2022/02/03 17:25:07;;;;;;;0.40;0.20;;;7.80;99.90;;;;;;5014222;28;20417;-76
2022/02/03 17:27:43;;;;;;;2.20;0.90;;;7.80;99.90;;;;;;5004772;28;20432;-76
2022/02/03 17:30:20;;;;;;;0.40;0.20;;;7.80;99.90;;;;;;4993854;28;20726;-76
2022/02/03 18:30:05;;;;;;;0.45;0.43;;;7.30;99.90;;;;;;5014294;28;20415;-76
2022/02/03 18:53:18;;;;;;;0.40;0.20;;;7.00;99.90;;;;;;5033200;28;20383;-75
2022/02/03 19:14:42;;;;;;;0.40;0.40;;;6.90;99.90;;;;;;5012690;28;20451;-74
2022/02/03 20:06:12;;;;;;;0.40;0.20;;;6.20;99.90;;;;;;4992758;28;20839;-72
2022/02/03 20:08:44;;;;;;;0.40;0.20;;;6.20;99.90;;;;;;4992278;28;20382;-72
2022/02/03 20:11:13;;;;;;;0.57;0.57;;;6.10;99.90;;;;;;4993192;28;20751;-72
2022/02/03 20:13:47;;;;;;;0.40;0.20;;;6.10;99.90;;;;;;4992029;28;20401;-73
2022/02/03 20:16:16;;;;;;;0.60;0.50;;;6.00;99.90;;;;;;4992838;28;20473;-72
2022/02/03 20:18:42;;;;;;;0.40;0.20;;;5.90;99.90;;;;;;4991524;28;20913;-72
2022/02/03 20:21:08;;;;;;;0.40;0.30;;;5.90;99.90;;;;;;4992590;28;20504;-73
2022/02/03 20:23:41;;;;;;;0.60;0.60;;;5.90;99.90;;;;;;4991433;28;20394;-73
2022/02/03 20:26:07;;;;;;;0.40;0.30;;;5.90;99.90;;;;;;4992235;28;20644;-73
2022/02/03 20:28:36;;;;;;;0.50;0.40;;;5.90;99.90;;;;;;4992308;28;20406;-74
2022/02/03 20:31:05;;;;;;;0.40;0.20;;;5.80;99.90;;;;;;5006698;28;20449;-72
2022/02/03 20:33:34;;;;;;;1.00;0.90;;;5.80;99.90;;;;;;4992261;28;20383;-72
2022/02/03 20:36:00;;;;;;;1.90;1.60;;;5.80;99.90;;;;;;4991340;28;20455;-74
2022/02/03 20:38:35;;;;;;;0.40;0.20;;;5.80;99.90;;;;;;5010390;28;20482;-73
2022/02/03 20:41:08;;;;;;;0.40;0.40;;;5.80;99.90;;;;;;5010866;28;20391;-74
2022/02/03 20:43:37;;;;;;;0.80;0.80;;;5.70;99.90;;;;;;5026721;28;20498;-74
2022/02/03 20:46:13;;;;;;;0.50;0.50;;;5.60;99.90;;;;;;5010814;28;20532;-73
2022/02/03 20:48:47;;;;;;;0.40;0.20;;;5.50;99.90;;;;;;5011563;28;20395;-74
2022/02/03 20:51:17;;;;;;;0.40;0.20;;;5.60;99.90;;;;;;5011217;28;20381;-74
2022/02/03 20:53:45;;;;;;;0.40;0.30;;;5.50;99.90;;;;;;5011837;28;20389;-73
2022/02/03 20:56:16;;;;;;;0.40;0.30;;;5.50;99.90;;;;;;5010733;28;20393;-74
2022/02/03 20:58:43;;;;;;;0.50;0.50;;;5.40;99.90;;;;;;5011487;28;20436;-73
2022/02/03 21:01:32;;;;;;;0.50;0.50;;;5.40;99.90;;;;;;4993455;28;20899;-73
2022/02/03 21:04:31;;;;;;;0.40;0.20;;;5.40;99.90;;;;;;5010737;28;20385;-72
2022/02/03 21:06:44;;;;;;;0.40;0.20;;;5.40;99.90;;;;;;5010491;28;20400;-73
2022/02/03 21:09:10;;;;;;;0.40;0.20;;;5.30;99.90;;;;;;5025888;28;20408;-72
2022/02/03 21:11:36;;;;;;;0.40;0.30;;;5.20;99.90;;;;;;5011307;28;20456;-73
2022/02/03 21:14:02;;;;;;;0.70;0.60;;;5.20;99.90;;;;;;5010357;28;20488;-73
2022/02/03 21:16:29;;;;;;;0.40;0.20;;;5.10;99.90;;;;;;5011161;28;20389;-74
2022/02/03 21:18:55;;;;;;;0.40;0.20;;;5.10;99.90;;;;;;5011014;28;20495;-74
2022/02/03 21:21:20;;;;;;;0.40;0.20;;;5.10;99.90;;;;;;5010266;28;20919;-74
2022/02/03 21:23:46;;;;;;;1.00;0.50;;;5.10;99.90;;;;;;5011466;28;20512;-74
2022/02/03 21:26:20;;;;;;;0.40;0.30;;;5.10;99.90;;;;;;5011349;28;20389;-73
2022/02/03 21:28:48;;;;;;;0.40;0.20;;;5.00;99.90;;;;;;5022517;28;20591;-73
2022/02/03 21:31:15;;;;;;;0.40;0.20;;;5.10;99.90;;;;;;5015849;28;20375;-75
2022/02/03 21:33:51;;;;;;;0.50;0.50;;;5.00;99.90;;;;;;5028855;28;20422;-72
2022/02/03 21:36:19;;;;;;;0.40;0.30;;;5.00;99.90;;;;;;5021356;28;20805;-72
2022/02/03 21:38:45;;;;;;;0.40;0.20;;;4.90;99.90;;;;;;5020081;28;20766;-73
2022/02/03 21:41:13;;;;;;;0.40;0.22;;;5.00;99.90;;;;;;5019158;28;20692;-73
2022/02/03 21:43:39;;;;;;;0.40;0.30;;;4.90;99.90;;;;;;5020456;28;20390;-73
2022/02/03 21:46:05;;;;;;;0.40;0.30;;;4.90;99.90;;;;;;5018840;28;20876;-73
2022/02/03 21:48:31;;;;;;;0.40;0.30;;;4.80;99.90;;;;;;5012362;28;20428;-73
2022/02/03 21:50:59;;;;;;;0.80;0.80;;;4.70;99.90;;;;;;5022087;28;20384;-73
2022/02/03 21:53:30;;;;;;;0.50;0.40;;;4.70;99.90;;;;;;5022464;28;20413;-73
2022/02/03 21:55:56;;;;;;;0.40;0.20;;;4.70;99.90;;;;;;5011080;28;20404;-73
2022/02/03 21:58:25;;;;;;;1.80;1.70;;;4.60;99.90;;;;;;5009878;28;20429;-73
2022/02/03 22:00:55;;;;;;;0.40;0.20;;;4.70;99.90;;;;;;5010751;28;20381;-73
2022/02/03 22:03:24;;;;;;;0.40;0.20;;;4.60;99.90;;;;;;5022737;28;20402;-74
2022/02/03 22:05:51;;;;;;;0.40;0.20;;;4.60;99.90;;;;;;5025787;28;20882;-72
2022/02/03 22:08:17;;;;;;;0.40;0.20;;;4.70;99.90;;;;;;5030728;28;20392;-73
2022/02/03 22:10:42;;;;;;;0.40;0.30;;;4.60;99.90;;;;;;5037360;28;20391;-72
2022/02/03 22:13:08;;;;;;;0.40;0.20;;;4.50;99.90;;;;;;5035258;28;20384;-72
2022/02/03 22:15:34;;;;;;;0.40;0.20;;;4.40;99.90;;;;;;5038328;28;20760;-70
2022/02/03 22:18:02;;;;;;;1.40;0.70;;;4.40;99.90;;;;;;5027301;28;20418;-70
2022/02/03 22:20:34;;;;;;;0.40;0.30;;;4.30;99.90;;;;;;5027732;28;20379;-72
2022/02/03 22:28:27;;;;;;;0.40;0.30;;;4.10;99.90;;;;;;5026776;28;20398;-71
2022/02/03 22:39:20;;;;;;;0.40;0.20;;;4.10;99.90;;;;;;5029287;28;20444;-71
2022/02/03 22:49:43;;;;;;;0.40;0.30;;;3.90;99.90;;;;;;5030087;28;20716;-71
2022/02/03 22:52:09;;;;;;;0.40;0.20;;;3.90;99.90;;;;;;5033111;28;20387;-71
2022/02/03 22:54:35;;;;;;;0.40;0.30;;;3.90;99.90;;;;;;5032425;28;20713;-72
2022/02/03 22:57:01;;;;;;;0.40;0.30;;;3.90;99.90;;;;;;5032773;28;20494;-71
2022/02/03 23:02:20;;;;;;;0.40;0.20;;;3.70;99.90;;;;;;5021821;28;20375;-71
2022/02/03 23:04:46;;;;;;;0.40;0.20;;;3.70;99.90;;;;;;5032836;28;20751;-71
2022/02/03 23:09:55;;;;;;;0.40;0.20;;;3.70;99.90;;;;;;5052104;28;20940;-72
2022/02/03 23:15:29;;;;;;;0.40;0.20;;;3.50;99.90;;;;;;5052041;28;20385;-71
2022/02/03 23:18:01;;;;;;;0.40;0.20;;;3.60;99.90;;;;;;5052004;28;20410;-71
2022/02/03 23:20:41;;;;;;;6.60;1.10;;;3.60;99.90;;;;;;5052907;28;20388;-71
2022/02/03 23:23:07;;;;;;;0.40;0.20;;;3.50;99.90;;;;;;5052071;28;20797;-71
2022/02/03 23:25:33;;;;;;;0.40;0.30;;;3.50;99.90;;;;;;5052417;28;20390;-71
2022/02/03 23:30:37;;;;;;;0.40;0.20;;;3.40;99.90;;;;;;5052896;28;20742;-71
2022/02/03 23:33:05;;;;;;;0.40;0.20;;;3.30;99.90;;;;;;5052131;28;20385;-71
2022/02/03 23:35:33;;;;;;;0.40;0.20;;;3.30;99.90;;;;;;5052784;28;20409;-71
2022/02/03 23:46:07;;;;;;;0.40;0.40;;;3.20;99.90;;;;;;5042923;28;20386;-71
